sensor_id;sensor_type;location;lat;lon;timestamp;temperature;humidity
36552;DHT22;22559;54.176;12.102;2024-01-07T00:00:01;0.10;99.90
36552;DHT22;22559;54.176;12.102;2024-01-07T00:02:27;0.10;99.90
36552;DHT22;22559;54.176;12.102;2024-01-07T00:04:52;0.10;99.90
36552;DHT22;22559;54.176;12.102;2024-01-07T00:07:18;0.10;99.90
36552;DHT22;22559;54.176;12.102;2024-01-07T00:09:45;0.10;99.90
36552;DHT22;22559;54.176;12.102;2024-01-07T00:12:11;0.00;99.90
36552;DHT22;22559;54.176;12.102;2024-01-07T00:14:36;0.10;99.90
36552;DHT22;22559;54.176;12.102;2024-01-07T00:17:02;0.10;99.90
36552;DHT22;22559;54.176;12.102;2024-01-07T00:19:27;0.00;99.90
36552;DHT22;22559;54.176;12.102;2024-01-07T00:21:53;0.00;99.90
36552;DHT22;22559;54.176;12.102;2024-01-07T00:24:19;0.10;99.90
36552;DHT22;22559;54.176;12.102;2024-01-07T00:26:44;0.10;99.90
36552;DHT22;22559;54.176;12.102;2024-01-07T00:29:10;0.10;99.90
36552;DHT22;22559;54.176;12.102;2024-01-07T00:31:35;0.20;99.90
36552;DHT22;22559;54.176;12.102;2024-01-07T00:34:01;0.10;99.90
36552;DHT22;22559;54.176;12.102;2024-01-07T00:36:26;0.20;99.90
36552;DHT22;22559;54.176;12.102;2024-01-07T00:38:52;0.30;99.90
36552;DHT22;22559;54.176;12.102;2024-01-07T00:41:18;0.30;99.90
36552;DHT22;22559;54.176;12.102;2024-01-07T00:43:43;0.40;99.90
36552;DHT22;22559;54.176;12.102;2024-01-07T00:46:09;0.40;99.90
36552;DHT22;22559;54.176;12.102;2024-01-07T00:48:34;0.40;99.90
36552;DHT22;22559;54.176;12.102;2024-01-07T00:51:00;0.30;99.90
36552;DHT22;22559;54.176;12.102;2024-01-07T00:53:26;0.40;99.90
36552;DHT22;22559;54.176;12.102;2024-01-07T00:55:51;0.40;99.90
36552;DHT22;22559;54.176;12.102;2024-01-07T00:58:17;0.40;99.90
36552;DHT22;22559;54.176;12.102;2024-01-07T01:00:43;0.40;99.90
36552;DHT22;22559;54.176;12.102;2024-01-07T01:03:08;0.40;99.90
36552;DHT22;22559;54.176;12.102;2024-01-07T01:05:34;0.50;99.90
36552;DHT22;22559;54.176;12.102;2024-01-07T01:07:59;0.60;99.90
36552;DHT22;22559;54.176;12.102;2024-01-07T01:10:25;0.60;99.90
36552;DHT22;22559;54.176;12.102;2024-01-07T01:12:51;0.70;99.90
36552;DHT22;22559;54.176;12.102;2024-01-07T01:15:19;0.70;99.90
36552;DHT22;22559;54.176;12.102;2024-01-07T01:17:45;0.70;99.90
36552;DHT22;22559;54.176;12.102;2024-01-07T01:20:11;0.80;99.90
36552;DHT22;22559;54.176;12.102;2024-01-07T01:22:36;0.80;99.90
36552;DHT22;22559;54.176;12.102;2024-01-07T01:25:02;0.70;99.90
36552;DHT22;22559;54.176;12.102;2024-01-07T01:27:28;0.60;99.90
36552;DHT22;22559;54.176;12.102;2024-01-07T01:29:54;0.50;99.90
36552;DHT22;22559;54.176;12.102;2024-01-07T01:32:20;0.60;99.90
36552;DHT22;22559;54.176;12.102;2024-01-07T01:34:45;0.60;99.90
36552;DHT22;22559;54.176;12.102;2024-01-07T01:37:11;0.50;99.90
36552;DHT22;22559;54.176;12.102;2024-01-07T01:39:40;0.50;99.90
36552;DHT22;22559;54.176;12.102;2024-01-07T01:42:06;0.60;99.90
36552;DHT22;22559;54.176;12.102;2024-01-07T01:44:32;0.60;99.90
36552;DHT22;22559;54.176;12.102;2024-01-07T01:46:57;0.70;99.90
36552;DHT22;22559;54.176;12.102;2024-01-07T01:49:26;0.70;99.90
36552;DHT22;22559;54.176;12.102;2024-01-07T01:51:52;0.70;99.90
36552;DHT22;22559;54.176;12.102;2024-01-07T01:54:19;0.70;99.90
36552;DHT22;22559;54.176;12.102;2024-01-07T01:56:46;0.70;99.90
36552;DHT22;22559;54.176;12.102;2024-01-07T01:59:12;0.70;99.90
36552;DHT22;22559;54.176;12.102;2024-01-07T02:01:39;0.70;99.90
36552;DHT22;22559;54.176;12.102;2024-01-07T02:04:04;0.70;99.90
36552;DHT22;22559;54.176;12.102;2024-01-07T02:06:30;0.70;99.90
36552;DHT22;22559;54.176;12.102;2024-01-07T02:08:56;0.70;99.90
36552;DHT22;22559;54.176;12.102;2024-01-07T02:11:22;0.80;99.90
36552;DHT22;22559;54.176;12.102;2024-01-07T02:13:48;0.70;99.90
36552;DHT22;22559;54.176;12.102;2024-01-07T02:16:14;0.70;99.90
36552;DHT22;22559;54.176;12.102;2024-01-07T02:18:41;0.70;99.90
36552;DHT22;22559;54.176;12.102;2024-01-07T02:21:09;0.70;99.90
36552;DHT22;22559;54.176;12.102;2024-01-07T02:23:35;0.70;99.90
36552;DHT22;22559;54.176;12.102;2024-01-07T02:26:00;0.70;99.90
36552;DHT22;22559;54.176;12.102;2024-01-07T02:28:26;0.70;99.90
36552;DHT22;22559;54.176;12.102;2024-01-07T02:30:51;0.70;99.90
36552;DHT22;22559;54.176;12.102;2024-01-07T02:33:17;0.70;99.90
36552;DHT22;22559;54.176;12.102;2024-01-07T02:35:43;0.70;99.90
36552;DHT22;22559;54.176;12.102;2024-01-07T02:38:08;0.60;99.90
36552;DHT22;22559;54.176;12.102;2024-01-07T02:40:34;0.70;99.90
36552;DHT22;22559;54.176;12.102;2024-01-07T02:42:59;0.70;99.90
36552;DHT22;22559;54.176;12.102;2024-01-07T02:45:25;0.70;99.90
36552;DHT22;22559;54.176;12.102;2024-01-07T02:47:51;0.70;99.90
36552;DHT22;22559;54.176;12.102;2024-01-07T02:50:16;0.60;99.90
36552;DHT22;22559;54.176;12.102;2024-01-07T02:52:42;0.70;99.90
36552;DHT22;22559;54.176;12.102;2024-01-07T02:55:08;0.70;99.90
36552;DHT22;22559;54.176;12.102;2024-01-07T02:57:34;0.70;99.90
36552;DHT22;22559;54.176;12.102;2024-01-07T03:00:00;0.70;99.90
36552;DHT22;22559;54.176;12.102;2024-01-07T03:02:25;0.70;99.90
36552;DHT22;22559;54.176;12.102;2024-01-07T03:04:51;0.70;99.90
36552;DHT22;22559;54.176;12.102;2024-01-07T03:07:17;0.70;99.90
36552;DHT22;22559;54.176;12.102;2024-01-07T03:09:43;0.70;99.90
36552;DHT22;22559;54.176;12.102;2024-01-07T03:12:08;0.70;99.90
36552;DHT22;22559;54.176;12.102;2024-01-07T03:14:34;0.70;99.90
36552;DHT22;22559;54.176;12.102;2024-01-07T03:16:59;0.70;99.90
36552;DHT22;22559;54.176;12.102;2024-01-07T03:19:25;0.60;99.90
36552;DHT22;22559;54.176;12.102;2024-01-07T03:21:51;0.60;99.90
36552;DHT22;22559;54.176;12.102;2024-01-07T03:24:16;0.50;99.90
36552;DHT22;22559;54.176;12.102;2024-01-07T03:26:42;0.50;99.90
36552;DHT22;22559;54.176;12.102;2024-01-07T03:29:08;0.50;99.90
36552;DHT22;22559;54.176;12.102;2024-01-07T03:31:33;0.50;99.90
36552;DHT22;22559;54.176;12.102;2024-01-07T03:33:59;0.60;99.90
36552;DHT22;22559;54.176;12.102;2024-01-07T03:36:24;0.60;99.90
36552;DHT22;22559;54.176;12.102;2024-01-07T03:38:50;0.60;99.90
36552;DHT22;22559;54.176;12.102;2024-01-07T03:41:17;0.60;99.90
36552;DHT22;22559;54.176;12.102;2024-01-07T03:43:44;0.60;99.90
36552;DHT22;22559;54.176;12.102;2024-01-07T03:46:09;0.50;99.90
36552;DHT22;22559;54.176;12.102;2024-01-07T03:48:35;0.50;99.90
36552;DHT22;22559;54.176;12.102;2024-01-07T03:51:01;0.40;99.90
36552;DHT22;22559;54.176;12.102;2024-01-07T03:53:26;0.40;99.90
36552;DHT22;22559;54.176;12.102;2024-01-07T03:55:52;0.40;99.90
36552;DHT22;22559;54.176;12.102;2024-01-07T03:58:17;0.40;99.90
36552;DHT22;22559;54.176;12.102;2024-01-07T04:00:43;0.40;99.90
36552;DHT22;22559;54.176;12.102;2024-01-07T04:03:09;0.40;99.90
36552;DHT22;22559;54.176;12.102;2024-01-07T04:05:35;0.50;99.90
36552;DHT22;22559;54.176;12.102;2024-01-07T04:08:02;0.40;99.90
36552;DHT22;22559;54.176;12.102;2024-01-07T04:10:27;0.40;99.90
36552;DHT22;22559;54.176;12.102;2024-01-07T04:12:53;0.40;99.90
36552;DHT22;22559;54.176;12.102;2024-01-07T04:15:20;0.40;99.90
36552;DHT22;22559;54.176;12.102;2024-01-07T04:17:46;0.30;99.90
36552;DHT22;22559;54.176;12.102;2024-01-07T04:20:14;0.40;99.90
36552;DHT22;22559;54.176;12.102;2024-01-07T04:22:40;0.40;99.90
36552;DHT22;22559;54.176;12.102;2024-01-07T04:25:06;0.50;99.90
36552;DHT22;22559;54.176;12.102;2024-01-07T04:27:36;0.50;99.90
36552;DHT22;22559;54.176;12.102;2024-01-07T04:30:02;0.50;99.90
36552;DHT22;22559;54.176;12.102;2024-01-07T04:32:28;0.60;99.90
36552;DHT22;22559;54.176;12.102;2024-01-07T04:34:54;0.60;99.90
36552;DHT22;22559;54.176;12.102;2024-01-07T04:37:19;0.60;99.90
36552;DHT22;22559;54.176;12.102;2024-01-07T04:39:45;0.60;99.90
36552;DHT22;22559;54.176;12.102;2024-01-07T04:42:10;0.60;99.90
36552;DHT22;22559;54.176;12.102;2024-01-07T04:44:36;0.60;99.90
36552;DHT22;22559;54.176;12.102;2024-01-07T04:47:02;0.60;99.90
36552;DHT22;22559;54.176;12.102;2024-01-07T04:49:27;0.60;99.90
36552;DHT22;22559;54.176;12.102;2024-01-07T04:51:53;0.60;99.90
36552;DHT22;22559;54.176;12.102;2024-01-07T04:54:19;0.60;99.90
36552;DHT22;22559;54.176;12.102;2024-01-07T04:56:44;0.60;99.90
36552;DHT22;22559;54.176;12.102;2024-01-07T04:59:10;0.60;99.90
36552;DHT22;22559;54.176;12.102;2024-01-07T05:01:36;0.60;99.90
36552;DHT22;22559;54.176;12.102;2024-01-07T05:04:02;0.50;99.90
36552;DHT22;22559;54.176;12.102;2024-01-07T05:06:28;0.50;99.90
36552;DHT22;22559;54.176;12.102;2024-01-07T05:08:54;0.40;99.90
36552;DHT22;22559;54.176;12.102;2024-01-07T05:11:20;0.40;99.90
36552;DHT22;22559;54.176;12.102;2024-01-07T05:13:45;0.30;99.90
36552;DHT22;22559;54.176;12.102;2024-01-07T05:16:20;0.30;99.90
36552;DHT22;22559;54.176;12.102;2024-01-07T05:18:46;0.30;99.90
36552;DHT22;22559;54.176;12.102;2024-01-07T05:21:14;0.40;99.90
36552;DHT22;22559;54.176;12.102;2024-01-07T05:23:41;0.50;99.90
36552;DHT22;22559;54.176;12.102;2024-01-07T05:26:07;0.50;99.90
36552;DHT22;22559;54.176;12.102;2024-01-07T05:28:32;0.50;99.90
36552;DHT22;22559;54.176;12.102;2024-01-07T05:30:58;0.60;99.90
36552;DHT22;22559;54.176;12.102;2024-01-07T05:33:23;0.60;99.90
36552;DHT22;22559;54.176;12.102;2024-01-07T05:35:49;0.60;99.90
36552;DHT22;22559;54.176;12.102;2024-01-07T05:38:14;0.50;99.90
36552;DHT22;22559;54.176;12.102;2024-01-07T05:40:40;0.40;99.90
36552;DHT22;22559;54.176;12.102;2024-01-07T05:43:06;0.30;99.90
36552;DHT22;22559;54.176;12.102;2024-01-07T05:45:31;0.20;99.90
36552;DHT22;22559;54.176;12.102;2024-01-07T05:47:57;0.20;99.90
36552;DHT22;22559;54.176;12.102;2024-01-07T05:50:22;0.00;99.90
36552;DHT22;22559;54.176;12.102;2024-01-07T05:52:48;-0.10;99.90
36552;DHT22;22559;54.176;12.102;2024-01-07T05:55:14;-0.10;99.90
36552;DHT22;22559;54.176;12.102;2024-01-07T05:57:39;-0.10;99.90
36552;DHT22;22559;54.176;12.102;2024-01-07T06:00:06;-0.20;99.90
36552;DHT22;22559;54.176;12.102;2024-01-07T06:02:31;-0.20;99.90
36552;DHT22;22559;54.176;12.102;2024-01-07T06:04:57;-0.10;99.90
36552;DHT22;22559;54.176;12.102;2024-01-07T06:07:22;-0.10;99.90
36552;DHT22;22559;54.176;12.102;2024-01-07T06:09:48;-0.10;99.90
36552;DHT22;22559;54.176;12.102;2024-01-07T06:12:14;-0.20;99.90
36552;DHT22;22559;54.176;12.102;2024-01-07T06:14:39;-0.20;99.90
36552;DHT22;22559;54.176;12.102;2024-01-07T06:17:05;-0.10;99.90
36552;DHT22;22559;54.176;12.102;2024-01-07T06:19:30;-0.10;99.90
36552;DHT22;22559;54.176;12.102;2024-01-07T06:21:56;-0.10;99.90
36552;DHT22;22559;54.176;12.102;2024-01-07T06:24:22;-0.10;99.90
36552;DHT22;22559;54.176;12.102;2024-01-07T06:26:47;-0.10;99.90
36552;DHT22;22559;54.176;12.102;2024-01-07T06:29:13;-0.10;99.90
36552;DHT22;22559;54.176;12.102;2024-01-07T06:31:45;-0.20;99.90
36552;DHT22;22559;54.176;12.102;2024-01-07T06:34:11;-0.20;99.90
36552;DHT22;22559;54.176;12.102;2024-01-07T06:36:39;-0.20;99.90
36552;DHT22;22559;54.176;12.102;2024-01-07T06:39:07;-0.20;99.90
36552;DHT22;22559;54.176;12.102;2024-01-07T06:41:34;-0.30;99.90
36552;DHT22;22559;54.176;12.102;2024-01-07T06:43:59;-0.20;99.90
36552;DHT22;22559;54.176;12.102;2024-01-07T06:46:25;-0.30;99.90
36552;DHT22;22559;54.176;12.102;2024-01-07T06:48:51;-0.30;99.90
36552;DHT22;22559;54.176;12.102;2024-01-07T06:51:16;-0.30;99.90
36552;DHT22;22559;54.176;12.102;2024-01-07T06:53:42;-0.40;99.90
36552;DHT22;22559;54.176;12.102;2024-01-07T06:56:07;-0.30;99.90
36552;DHT22;22559;54.176;12.102;2024-01-07T06:58:33;-0.30;99.90
36552;DHT22;22559;54.176;12.102;2024-01-07T07:00:59;-0.40;99.90
36552;DHT22;22559;54.176;12.102;2024-01-07T07:03:24;-0.30;99.90
36552;DHT22;22559;54.176;12.102;2024-01-07T07:05:51;-0.30;99.90
36552;DHT22;22559;54.176;12.102;2024-01-07T07:08:16;-0.20;99.90
36552;DHT22;22559;54.176;12.102;2024-01-07T07:10:42;-0.20;99.90
36552;DHT22;22559;54.176;12.102;2024-01-07T07:13:07;-0.20;99.90
36552;DHT22;22559;54.176;12.102;2024-01-07T07:15:34;-0.30;99.90
36552;DHT22;22559;54.176;12.102;2024-01-07T07:17:59;-0.30;99.90
36552;DHT22;22559;54.176;12.102;2024-01-07T07:20:25;-0.30;99.90
36552;DHT22;22559;54.176;12.102;2024-01-07T07:22:51;-0.30;99.90
36552;DHT22;22559;54.176;12.102;2024-01-07T07:25:16;-0.30;99.90
36552;DHT22;22559;54.176;12.102;2024-01-07T07:27:42;-0.30;99.90
36552;DHT22;22559;54.176;12.102;2024-01-07T07:30:09;-0.30;99.90
36552;DHT22;22559;54.176;12.102;2024-01-07T07:32:34;-0.30;99.90
36552;DHT22;22559;54.176;12.102;2024-01-07T07:35:01;-0.40;99.90
36552;DHT22;22559;54.176;12.102;2024-01-07T07:37:26;-0.40;99.90
36552;DHT22;22559;54.176;12.102;2024-01-07T07:39:52;-0.40;99.90
36552;DHT22;22559;54.176;12.102;2024-01-07T07:42:18;-0.30;99.90
36552;DHT22;22559;54.176;12.102;2024-01-07T07:44:43;-0.30;99.90
36552;DHT22;22559;54.176;12.102;2024-01-07T07:47:09;-0.30;99.90
36552;DHT22;22559;54.176;12.102;2024-01-07T07:49:37;-0.30;99.90
36552;DHT22;22559;54.176;12.102;2024-01-07T07:52:08;-0.20;99.90
36552;DHT22;22559;54.176;12.102;2024-01-07T07:54:39;-0.20;99.90
36552;DHT22;22559;54.176;12.102;2024-01-07T07:57:05;-0.10;99.90
36552;DHT22;22559;54.176;12.102;2024-01-07T07:59:30;-0.10;99.90
36552;DHT22;22559;54.176;12.102;2024-01-07T08:01:56;0.00;99.90
36552;DHT22;22559;54.176;12.102;2024-01-07T08:04:22;-0.10;99.90
36552;DHT22;22559;54.176;12.102;2024-01-07T08:06:47;0.00;99.90
36552;DHT22;22559;54.176;12.102;2024-01-07T08:09:13;0.00;99.90
36552;DHT22;22559;54.176;12.102;2024-01-07T08:11:39;0.00;99.90
36552;DHT22;22559;54.176;12.102;2024-01-07T08:14:04;0.10;99.90
36552;DHT22;22559;54.176;12.102;2024-01-07T08:16:31;0.20;99.90
36552;DHT22;22559;54.176;12.102;2024-01-07T08:18:57;0.20;99.90
36552;DHT22;22559;54.176;12.102;2024-01-07T08:21:23;0.20;99.90
36552;DHT22;22559;54.176;12.102;2024-01-07T08:23:49;0.20;99.90
36552;DHT22;22559;54.176;12.102;2024-01-07T08:26:20;0.20;99.90
36552;DHT22;22559;54.176;12.102;2024-01-07T08:28:46;0.20;99.90
36552;DHT22;22559;54.176;12.102;2024-01-07T08:31:12;0.20;99.90
36552;DHT22;22559;54.176;12.102;2024-01-07T08:33:37;0.20;99.90
36552;DHT22;22559;54.176;12.102;2024-01-07T08:36:03;0.30;99.90
36552;DHT22;22559;54.176;12.102;2024-01-07T08:38:30;0.40;99.90
36552;DHT22;22559;54.176;12.102;2024-01-07T08:40:55;0.40;99.90
36552;DHT22;22559;54.176;12.102;2024-01-07T08:43:21;0.40;99.90
36552;DHT22;22559;54.176;12.102;2024-01-07T08:45:46;0.50;99.90
36552;DHT22;22559;54.176;12.102;2024-01-07T08:48:12;0.50;99.90
36552;DHT22;22559;54.176;12.102;2024-01-07T08:50:38;0.60;99.90
36552;DHT22;22559;54.176;12.102;2024-01-07T08:53:04;0.60;99.90
36552;DHT22;22559;54.176;12.102;2024-01-07T08:55:30;0.60;99.90
36552;DHT22;22559;54.176;12.102;2024-01-07T08:57:56;0.80;99.90
36552;DHT22;22559;54.176;12.102;2024-01-07T09:00:21;1.00;99.90
36552;DHT22;22559;54.176;12.102;2024-01-07T09:02:51;1.20;99.90
36552;DHT22;22559;54.176;12.102;2024-01-07T09:05:17;1.20;99.90
36552;DHT22;22559;54.176;12.102;2024-01-07T09:07:43;1.20;99.90
36552;DHT22;22559;54.176;12.102;2024-01-07T09:10:09;1.10;99.90
36552;DHT22;22559;54.176;12.102;2024-01-07T09:12:39;1.00;99.90
36552;DHT22;22559;54.176;12.102;2024-01-07T09:15:05;0.90;99.90
36552;DHT22;22559;54.176;12.102;2024-01-07T09:17:36;0.80;99.90
36552;DHT22;22559;54.176;12.102;2024-01-07T09:20:04;0.80;99.90
36552;DHT22;22559;54.176;12.102;2024-01-07T09:22:33;0.80;99.90
36552;DHT22;22559;54.176;12.102;2024-01-07T09:24:58;0.80;99.90
36552;DHT22;22559;54.176;12.102;2024-01-07T09:27:24;0.70;99.90
36552;DHT22;22559;54.176;12.102;2024-01-07T09:29:50;0.80;99.90
36552;DHT22;22559;54.176;12.102;2024-01-07T09:32:15;0.70;99.90
36552;DHT22;22559;54.176;12.102;2024-01-07T09:34:41;0.70;99.90
36552;DHT22;22559;54.176;12.102;2024-01-07T09:37:06;0.80;99.90
36552;DHT22;22559;54.176;12.102;2024-01-07T09:39:32;0.80;99.90
36552;DHT22;22559;54.176;12.102;2024-01-07T09:41:58;0.70;99.90
36552;DHT22;22559;54.176;12.102;2024-01-07T09:44:25;0.80;99.90
36552;DHT22;22559;54.176;12.102;2024-01-07T09:46:51;0.70;99.90
36552;DHT22;22559;54.176;12.102;2024-01-07T09:49:17;0.80;99.90
36552;DHT22;22559;54.176;12.102;2024-01-07T09:51:45;0.80;99.90
36552;DHT22;22559;54.176;12.102;2024-01-07T09:54:12;0.80;99.90
36552;DHT22;22559;54.176;12.102;2024-01-07T09:56:50;0.80;99.90
36552;DHT22;22559;54.176;12.102;2024-01-07T09:59:16;0.80;99.90
36552;DHT22;22559;54.176;12.102;2024-01-07T10:01:44;0.90;99.90
36552;DHT22;22559;54.176;12.102;2024-01-07T10:04:11;0.90;99.90
36552;DHT22;22559;54.176;12.102;2024-01-07T10:06:36;1.00;99.90
36552;DHT22;22559;54.176;12.102;2024-01-07T10:09:03;1.00;99.90
36552;DHT22;22559;54.176;12.102;2024-01-07T10:11:31;1.00;99.90
36552;DHT22;22559;54.176;12.102;2024-01-07T10:13:58;1.00;99.90
36552;DHT22;22559;54.176;12.102;2024-01-07T10:16:23;0.90;99.90
36552;DHT22;22559;54.176;12.102;2024-01-07T10:18:49;0.90;99.90
36552;DHT22;22559;54.176;12.102;2024-01-07T10:21:15;0.80;99.90
36552;DHT22;22559;54.176;12.102;2024-01-07T10:23:40;0.80;99.90
36552;DHT22;22559;54.176;12.102;2024-01-07T10:26:06;0.80;99.90
36552;DHT22;22559;54.176;12.102;2024-01-07T10:28:32;0.90;99.90
36552;DHT22;22559;54.176;12.102;2024-01-07T10:30:59;0.90;99.90
36552;DHT22;22559;54.176;12.102;2024-01-07T10:33:24;0.80;99.90
36552;DHT22;22559;54.176;12.102;2024-01-07T10:36:01;0.90;99.90
36552;DHT22;22559;54.176;12.102;2024-01-07T10:38:29;0.90;99.90
36552;DHT22;22559;54.176;12.102;2024-01-07T10:40:56;0.90;99.90
36552;DHT22;22559;54.176;12.102;2024-01-07T10:43:28;0.90;99.90
36552;DHT22;22559;54.176;12.102;2024-01-07T10:45:55;0.90;99.90
36552;DHT22;22559;54.176;12.102;2024-01-07T10:48:21;0.90;99.90
36552;DHT22;22559;54.176;12.102;2024-01-07T10:50:50;0.90;99.90
36552;DHT22;22559;54.176;12.102;2024-01-07T10:53:21;0.80;99.90
36552;DHT22;22559;54.176;12.102;2024-01-07T10:56:08;0.80;99.90
36552;DHT22;22559;54.176;12.102;2024-01-07T10:58:37;1.10;99.90
36552;DHT22;22559;54.176;12.102;2024-01-07T11:01:05;1.10;99.90
36552;DHT22;22559;54.176;12.102;2024-01-07T11:03:59;1.30;99.90
36552;DHT22;22559;54.176;12.102;2024-01-07T11:09:37;1.70;99.90
36552;DHT22;22559;54.176;12.102;2024-01-07T11:12:05;1.60;99.90
36552;DHT22;22559;54.176;12.102;2024-01-07T11:14:36;1.50;99.90
36552;DHT22;22559;54.176;12.102;2024-01-07T11:17:02;1.40;99.90
36552;DHT22;22559;54.176;12.102;2024-01-07T11:19:28;1.30;99.90
36552;DHT22;22559;54.176;12.102;2024-01-07T11:24:55;1.00;99.90
36552;DHT22;22559;54.176;12.102;2024-01-07T11:27:25;0.90;99.90
36552;DHT22;22559;54.176;12.102;2024-01-07T11:30:19;0.90;99.90
36552;DHT22;22559;54.176;12.102;2024-01-07T11:32:45;0.90;99.90
36552;DHT22;22559;54.176;12.102;2024-01-07T11:35:14;0.80;99.90
36552;DHT22;22559;54.176;12.102;2024-01-07T11:37:41;0.80;99.90
36552;DHT22;22559;54.176;12.102;2024-01-07T11:40:07;0.70;99.90
36552;DHT22;22559;54.176;12.102;2024-01-07T11:42:33;0.70;99.90
36552;DHT22;22559;54.176;12.102;2024-01-07T11:44:59;0.80;99.90
36552;DHT22;22559;54.176;12.102;2024-01-07T11:47:25;0.90;99.90
36552;DHT22;22559;54.176;12.102;2024-01-07T11:49:53;0.80;99.90
36552;DHT22;22559;54.176;12.102;2024-01-07T11:52:19;0.80;99.90
36552;DHT22;22559;54.176;12.102;2024-01-07T11:54:45;0.90;99.90
36552;DHT22;22559;54.176;12.102;2024-01-07T11:57:12;1.00;99.90
36552;DHT22;22559;54.176;12.102;2024-01-07T11:59:38;1.00;99.90
36552;DHT22;22559;54.176;12.102;2024-01-07T12:02:04;0.90;99.90
36552;DHT22;22559;54.176;12.102;2024-01-07T12:04:31;1.00;99.90
36552;DHT22;22559;54.176;12.102;2024-01-07T12:06:57;1.10;99.90
36552;DHT22;22559;54.176;12.102;2024-01-07T12:09:23;1.10;99.90
36552;DHT22;22559;54.176;12.102;2024-01-07T12:11:49;1.30;99.90
36552;DHT22;22559;54.176;12.102;2024-01-07T12:14:15;1.40;99.90
36552;DHT22;22559;54.176;12.102;2024-01-07T12:16:41;1.30;99.90
36552;DHT22;22559;54.176;12.102;2024-01-07T12:19:08;1.20;99.90
36552;DHT22;22559;54.176;12.102;2024-01-07T12:21:35;1.20;99.90
36552;DHT22;22559;54.176;12.102;2024-01-07T12:24:00;1.10;99.90
36552;DHT22;22559;54.176;12.102;2024-01-07T12:26:27;1.20;99.90
36552;DHT22;22559;54.176;12.102;2024-01-07T12:28:54;1.10;99.90
36552;DHT22;22559;54.176;12.102;2024-01-07T12:31:21;1.20;99.90
36552;DHT22;22559;54.176;12.102;2024-01-07T12:33:47;1.10;99.90
36552;DHT22;22559;54.176;12.102;2024-01-07T12:36:13;1.10;99.90
36552;DHT22;22559;54.176;12.102;2024-01-07T12:38:38;1.00;99.90
36552;DHT22;22559;54.176;12.102;2024-01-07T12:41:05;1.00;99.90
36552;DHT22;22559;54.176;12.102;2024-01-07T12:43:31;0.90;99.90
36552;DHT22;22559;54.176;12.102;2024-01-07T12:45:56;0.90;99.90
36552;DHT22;22559;54.176;12.102;2024-01-07T12:48:23;0.80;99.90
36552;DHT22;22559;54.176;12.102;2024-01-07T12:50:49;0.80;99.90
36552;DHT22;22559;54.176;12.102;2024-01-07T12:53:14;0.70;99.90
36552;DHT22;22559;54.176;12.102;2024-01-07T12:55:40;0.70;99.90
36552;DHT22;22559;54.176;12.102;2024-01-07T12:58:06;0.70;99.90
36552;DHT22;22559;54.176;12.102;2024-01-07T13:00:32;0.60;99.90
36552;DHT22;22559;54.176;12.102;2024-01-07T13:02:59;0.70;99.90
36552;DHT22;22559;54.176;12.102;2024-01-07T13:05:25;0.70;99.90
36552;DHT22;22559;54.176;12.102;2024-01-07T13:07:50;0.70;99.90
36552;DHT22;22559;54.176;12.102;2024-01-07T13:10:16;0.70;99.90
36552;DHT22;22559;54.176;12.102;2024-01-07T13:12:42;0.70;99.90
36552;DHT22;22559;54.176;12.102;2024-01-07T13:15:08;0.70;99.90
36552;DHT22;22559;54.176;12.102;2024-01-07T13:17:34;0.70;99.90
36552;DHT22;22559;54.176;12.102;2024-01-07T13:20:00;0.70;99.90
36552;DHT22;22559;54.176;12.102;2024-01-07T13:22:26;0.70;99.90
36552;DHT22;22559;54.176;12.102;2024-01-07T13:24:52;0.90;99.90
36552;DHT22;22559;54.176;12.102;2024-01-07T13:27:20;0.90;99.90
36552;DHT22;22559;54.176;12.102;2024-01-07T13:29:47;1.10;99.90
36552;DHT22;22559;54.176;12.102;2024-01-07T13:32:13;0.90;99.90
36552;DHT22;22559;54.176;12.102;2024-01-07T13:34:45;0.80;99.90
36552;DHT22;22559;54.176;12.102;2024-01-07T13:37:10;0.80;99.90
36552;DHT22;22559;54.176;12.102;2024-01-07T13:39:36;0.80;99.90
36552;DHT22;22559;54.176;12.102;2024-01-07T13:42:02;0.70;99.90
36552;DHT22;22559;54.176;12.102;2024-01-07T13:44:28;0.60;99.90
36552;DHT22;22559;54.176;12.102;2024-01-07T13:46:53;0.70;99.90
36552;DHT22;22559;54.176;12.102;2024-01-07T13:49:19;0.60;99.90
36552;DHT22;22559;54.176;12.102;2024-01-07T13:51:45;0.60;99.90
36552;DHT22;22559;54.176;12.102;2024-01-07T13:54:11;0.60;99.90
36552;DHT22;22559;54.176;12.102;2024-01-07T13:56:39;0.60;99.90
36552;DHT22;22559;54.176;12.102;2024-01-07T13:59:07;0.50;99.90
36552;DHT22;22559;54.176;12.102;2024-01-07T14:01:33;0.60;99.90
36552;DHT22;22559;54.176;12.102;2024-01-07T14:03:59;0.50;99.90
36552;DHT22;22559;54.176;12.102;2024-01-07T14:06:25;0.50;99.90
36552;DHT22;22559;54.176;12.102;2024-01-07T14:08:51;0.60;99.90
36552;DHT22;22559;54.176;12.102;2024-01-07T14:11:17;0.60;99.90
36552;DHT22;22559;54.176;12.102;2024-01-07T14:13:44;0.70;99.90
36552;DHT22;22559;54.176;12.102;2024-01-07T14:16:11;0.60;99.90
36552;DHT22;22559;54.176;12.102;2024-01-07T14:18:36;0.60;99.90
36552;DHT22;22559;54.176;12.102;2024-01-07T14:21:02;0.60;99.90
36552;DHT22;22559;54.176;12.102;2024-01-07T14:23:28;0.60;99.90
36552;DHT22;22559;54.176;12.102;2024-01-07T14:25:56;0.50;99.90
36552;DHT22;22559;54.176;12.102;2024-01-07T14:28:22;0.50;99.90
36552;DHT22;22559;54.176;12.102;2024-01-07T14:30:48;0.40;99.90
36552;DHT22;22559;54.176;12.102;2024-01-07T14:33:14;0.40;99.90
36552;DHT22;22559;54.176;12.102;2024-01-07T14:35:40;0.30;99.90
36552;DHT22;22559;54.176;12.102;2024-01-07T14:38:05;0.30;99.90
36552;DHT22;22559;54.176;12.102;2024-01-07T14:40:31;0.30;99.90
36552;DHT22;22559;54.176;12.102;2024-01-07T14:42:57;0.20;99.90
36552;DHT22;22559;54.176;12.102;2024-01-07T14:45:28;0.30;99.90
36552;DHT22;22559;54.176;12.102;2024-01-07T14:47:54;0.20;99.90
36552;DHT22;22559;54.176;12.102;2024-01-07T14:50:20;0.20;99.90
36552;DHT22;22559;54.176;12.102;2024-01-07T14:52:46;0.20;99.90
36552;DHT22;22559;54.176;12.102;2024-01-07T14:55:12;0.20;99.90
36552;DHT22;22559;54.176;12.102;2024-01-07T14:57:41;0.20;99.90
36552;DHT22;22559;54.176;12.102;2024-01-07T15:00:07;0.20;99.90
36552;DHT22;22559;54.176;12.102;2024-01-07T15:02:34;0.20;99.90
36552;DHT22;22559;54.176;12.102;2024-01-07T15:05:00;0.20;99.90
36552;DHT22;22559;54.176;12.102;2024-01-07T15:07:26;0.20;99.90
36552;DHT22;22559;54.176;12.102;2024-01-07T15:09:51;0.20;99.90
36552;DHT22;22559;54.176;12.102;2024-01-07T15:12:17;0.30;99.90
36552;DHT22;22559;54.176;12.102;2024-01-07T15:14:44;0.30;99.90
36552;DHT22;22559;54.176;12.102;2024-01-07T15:17:10;0.30;99.90
36552;DHT22;22559;54.176;12.102;2024-01-07T15:19:35;0.30;99.90
36552;DHT22;22559;54.176;12.102;2024-01-07T15:22:01;0.30;99.90
36552;DHT22;22559;54.176;12.102;2024-01-07T15:24:28;0.30;99.90
36552;DHT22;22559;54.176;12.102;2024-01-07T15:26:54;0.40;99.90